sensor_id;sensor_type;location;lat;lon;timestamp;temperature;humidity
21121;DHT22;12519;43.318;21.898;2023-05-21T00:00:42;19.8;78.0
21121;DHT22;12519;43.318;21.898;2023-05-21T00:05:18;19.7;78.0
21121;DHT22;12519;43.318;21.898;2023-05-21T00:09:55;19.7;78.0
21121;DHT22;12519;43.318;21.898;2023-05-21T00:14:32;19.7;78.0
21121;DHT22;12519;43.318;21.898;2023-05-21T00:19:09;19.7;78.0
21121;DHT22;12519;43.318;21.898;2023-05-21T00:23:45;19.7;78.0
21121;DHT22;12519;43.318;21.898;2023-05-21T00:28:22;19.7;78.0
21121;DHT22;12519;43.318;21.898;2023-05-21T00:32:58;19.6;78.0
21121;DHT22;12519;43.318;21.898;2023-05-21T00:37:34;19.6;78.0
21121;DHT22;12519;43.318;21.898;2023-05-21T00:42:11;19.6;78.0
21121;DHT22;12519;43.318;21.898;2023-05-21T00:46:48;19.6;78.0
21121;DHT22;12519;43.318;21.898;2023-05-21T00:51:25;19.6;78.0
21121;DHT22;12519;43.318;21.898;2023-05-21T00:56:02;19.6;79.0
21121;DHT22;12519;43.318;21.898;2023-05-21T01:00:40;19.6;79.0
21121;DHT22;12519;43.318;21.898;2023-05-21T01:05:17;19.5;79.0
21121;DHT22;12519;43.318;21.898;2023-05-21T01:09:54;19.5;79.0
21121;DHT22;12519;43.318;21.898;2023-05-21T01:14:30;19.5;79.0
21121;DHT22;12519;43.318;21.898;2023-05-21T01:19:14;19.5;79.0
21121;DHT22;12519;43.318;21.898;2023-05-21T01:23:57;19.5;79.0
21121;DHT22;12519;43.318;21.898;2023-05-21T01:28:34;19.5;79.0
21121;DHT22;12519;43.318;21.898;2023-05-21T01:33:14;19.4;79.0
21121;DHT22;12519;43.318;21.898;2023-05-21T01:38:12;19.4;79.0
21121;DHT22;12519;43.318;21.898;2023-05-21T01:43:08;19.4;79.0
21121;DHT22;12519;43.318;21.898;2023-05-21T01:47:52;19.4;79.0
21121;DHT22;12519;43.318;21.898;2023-05-21T01:52:33;19.4;79.0
21121;DHT22;12519;43.318;21.898;2023-05-21T01:57:10;19.3;79.0
21121;DHT22;12519;43.318;21.898;2023-05-21T02:01:47;19.3;79.0
21121;DHT22;12519;43.318;21.898;2023-05-21T02:06:23;19.2;79.0
21121;DHT22;12519;43.318;21.898;2023-05-21T02:11:00;19.2;79.0
21121;DHT22;12519;43.318;21.898;2023-05-21T02:15:36;19.2;80.0
21121;DHT22;12519;43.318;21.898;2023-05-21T02:20:13;19.2;80.0
21121;DHT22;12519;43.318;21.898;2023-05-21T02:24:49;19.2;80.0
21121;DHT22;12519;43.318;21.898;2023-05-21T02:29:26;19.2;80.0
21121;DHT22;12519;43.318;21.898;2023-05-21T02:34:03;19.2;80.0
21121;DHT22;12519;43.318;21.898;2023-05-21T02:38:39;19.2;80.0
21121;DHT22;12519;43.318;21.898;2023-05-21T02:43:16;19.1;80.0
21121;DHT22;12519;43.318;21.898;2023-05-21T02:47:53;19.1;80.0
21121;DHT22;12519;43.318;21.898;2023-05-21T02:52:29;19.1;80.0
21121;DHT22;12519;43.318;21.898;2023-05-21T02:57:06;18.9;81.0
21121;DHT22;12519;43.318;21.898;2023-05-21T03:01:42;18.9;81.0
21121;DHT22;12519;43.318;21.898;2023-05-21T03:06:18;18.7;82.0
21121;DHT22;12519;43.318;21.898;2023-05-21T03:10:55;18.7;82.0
21121;DHT22;12519;43.318;21.898;2023-05-21T03:15:31;18.4;82.0
21121;DHT22;12519;43.318;21.898;2023-05-21T03:20:08;18.4;82.0
21121;DHT22;12519;43.318;21.898;2023-05-21T03:24:46;18.1;83.0
21121;DHT22;12519;43.318;21.898;2023-05-21T03:29:22;18.1;83.0
21121;DHT22;12519;43.318;21.898;2023-05-21T03:33:59;18.2;83.0
21121;DHT22;12519;43.318;21.898;2023-05-21T03:38:35;18.2;83.0
21121;DHT22;12519;43.318;21.898;2023-05-21T03:43:11;18.2;83.0
21121;DHT22;12519;43.318;21.898;2023-05-21T03:47:47;18.2;83.0
21121;DHT22;12519;43.318;21.898;2023-05-21T03:52:23;18.2;83.0
21121;DHT22;12519;43.318;21.898;2023-05-21T03:56:59;18.4;83.0
21121;DHT22;12519;43.318;21.898;2023-05-21T04:01:35;18.4;83.0
21121;DHT22;12519;43.318;21.898;2023-05-21T04:06:12;18.5;83.0
21121;DHT22;12519;43.318;21.898;2023-05-21T04:10:48;18.5;83.0
21121;DHT22;12519;43.318;21.898;2023-05-21T04:15:24;18.6;83.0
21121;DHT22;12519;43.318;21.898;2023-05-21T04:20:01;18.6;83.0
21121;DHT22;12519;43.318;21.898;2023-05-21T04:24:39;18.6;84.0
21121;DHT22;12519;43.318;21.898;2023-05-21T04:29:15;18.6;84.0
21121;DHT22;12519;43.318;21.898;2023-05-21T04:33:52;18.6;84.0
21121;DHT22;12519;43.318;21.898;2023-05-21T04:38:28;18.6;84.0
21121;DHT22;12519;43.318;21.898;2023-05-21T04:43:04;18.6;84.0
21121;DHT22;12519;43.318;21.898;2023-05-21T04:47:41;18.7;85.0
21121;DHT22;12519;43.318;21.898;2023-05-21T04:52:18;18.7;85.0
21121;DHT22;12519;43.318;21.898;2023-05-21T04:56:55;18.8;84.0
21121;DHT22;12519;43.318;21.898;2023-05-21T05:01:32;18.8;84.0
21121;DHT22;12519;43.318;21.898;2023-05-21T05:06:08;18.9;84.0
21121;DHT22;12519;43.318;21.898;2023-05-21T05:10:45;18.9;84.0
21121;DHT22;12519;43.318;21.898;2023-05-21T05:15:22;19.0;84.0
21121;DHT22;12519;43.318;21.898;2023-05-21T05:20:00;19.0;84.0
21121;DHT22;12519;43.318;21.898;2023-05-21T05:24:37;19.0;84.0
21121;DHT22;12519;43.318;21.898;2023-05-21T05:29:13;19.0;84.0
21121;DHT22;12519;43.318;21.898;2023-05-21T05:33:50;19.1;84.0
21121;DHT22;12519;43.318;21.898;2023-05-21T05:38:27;19.1;84.0
21121;DHT22;12519;43.318;21.898;2023-05-21T05:43:03;19.1;84.0
21121;DHT22;12519;43.318;21.898;2023-05-21T05:47:39;19.2;85.0
21121;DHT22;12519;43.318;21.898;2023-05-21T05:52:15;19.2;85.0
21121;DHT22;12519;43.318;21.898;2023-05-21T05:56:52;19.3;84.0
21121;DHT22;12519;43.318;21.898;2023-05-21T06:01:28;19.3;84.0
21121;DHT22;12519;43.318;21.898;2023-05-21T06:06:04;19.4;84.0
21121;DHT22;12519;43.318;21.898;2023-05-21T06:10:40;19.4;84.0
21121;DHT22;12519;43.318;21.898;2023-05-21T06:15:16;19.5;85.0
21121;DHT22;12519;43.318;21.898;2023-05-21T06:19:53;19.5;85.0
21121;DHT22;12519;43.318;21.898;2023-05-21T06:24:29;19.7;85.0
21121;DHT22;12519;43.318;21.898;2023-05-21T06:29:05;19.7;85.0
21121;DHT22;12519;43.318;21.898;2023-05-21T06:33:42;20.1;85.0
21121;DHT22;12519;43.318;21.898;2023-05-21T06:38:18;20.1;85.0
21121;DHT22;12519;43.318;21.898;2023-05-21T06:42:54;20.1;85.0
21121;DHT22;12519;43.318;21.898;2023-05-21T06:47:30;20.5;84.0
21121;DHT22;12519;43.318;21.898;2023-05-21T06:52:07;20.5;84.0
21121;DHT22;12519;43.318;21.898;2023-05-21T06:56:43;20.6;85.0
21121;DHT22;12519;43.318;21.898;2023-05-21T07:01:20;20.6;85.0
21121;DHT22;12519;43.318;21.898;2023-05-21T07:05:58;20.7;86.0
21121;DHT22;12519;43.318;21.898;2023-05-21T07:10:35;20.7;86.0
21121;DHT22;12519;43.318;21.898;2023-05-21T07:15:11;21.0;85.0
21121;DHT22;12519;43.318;21.898;2023-05-21T07:19:48;21.0;85.0
21121;DHT22;12519;43.318;21.898;2023-05-21T07:24:25;21.2;84.0
21121;DHT22;12519;43.318;21.898;2023-05-21T07:29:01;21.2;84.0
21121;DHT22;12519;43.318;21.898;2023-05-21T07:33:38;21.2;84.0
21121;DHT22;12519;43.318;21.898;2023-05-21T07:38:14;21.2;83.0
21121;DHT22;12519;43.318;21.898;2023-05-21T07:42:51;21.2;83.0
21121;DHT22;12519;43.318;21.898;2023-05-21T07:47:27;21.3;83.0
21121;DHT22;12519;43.318;21.898;2023-05-21T07:52:04;21.3;83.0
21121;DHT22;12519;43.318;21.898;2023-05-21T07:56:42;21.2;84.0
21121;DHT22;12519;43.318;21.898;2023-05-21T08:01:19;21.2;84.0
21121;DHT22;12519;43.318;21.898;2023-05-21T08:05:55;21.2;84.0
21121;DHT22;12519;43.318;21.898;2023-05-21T08:10:32;21.2;84.0
21121;DHT22;12519;43.318;21.898;2023-05-21T08:15:10;21.6;84.0
21121;DHT22;12519;43.318;21.898;2023-05-21T08:19:46;21.6;84.0
21121;DHT22;12519;43.318;21.898;2023-05-21T08:24:23;22.1;83.0
21121;DHT22;12519;43.318;21.898;2023-05-21T08:29:00;22.1;83.0
21121;DHT22;12519;43.318;21.898;2023-05-21T08:33:37;22.1;83.0
21121;DHT22;12519;43.318;21.898;2023-05-21T08:38:14;22.2;82.0
21121;DHT22;12519;43.318;21.898;2023-05-21T08:42:50;22.2;82.0
21121;DHT22;12519;43.318;21.898;2023-05-21T08:47:29;22.4;81.0
21121;DHT22;12519;43.318;21.898;2023-05-21T08:52:11;22.4;81.0
21121;DHT22;12519;43.318;21.898;2023-05-21T08:56:49;22.4;79.0
21121;DHT22;12519;43.318;21.898;2023-05-21T09:01:31;22.4;79.0
21121;DHT22;12519;43.318;21.898;2023-05-21T09:06:09;22.4;78.0
21121;DHT22;12519;43.318;21.898;2023-05-21T09:10:49;22.4;78.0
21121;DHT22;12519;43.318;21.898;2023-05-21T09:15:27;22.4;79.0
21121;DHT22;12519;43.318;21.898;2023-05-21T09:20:07;22.4;79.0
21121;DHT22;12519;43.318;21.898;2023-05-21T09:24:50;22.4;80.0
21121;DHT22;12519;43.318;21.898;2023-05-21T09:29:26;22.4;80.0
21121;DHT22;12519;43.318;21.898;2023-05-21T09:34:03;22.2;80.0
21121;DHT22;12519;43.318;21.898;2023-05-21T09:38:39;22.2;80.0
21121;DHT22;12519;43.318;21.898;2023-05-21T09:43:15;22.2;80.0
21121;DHT22;12519;43.318;21.898;2023-05-21T09:47:54;22.1;80.0
21121;DHT22;12519;43.318;21.898;2023-05-21T09:52:31;22.1;80.0
21121;DHT22;12519;43.318;21.898;2023-05-21T09:57:13;22.0;80.0
21121;DHT22;12519;43.318;21.898;2023-05-21T10:01:50;22.0;80.0
21121;DHT22;12519;43.318;21.898;2023-05-21T10:06:29;22.0;80.0
21121;DHT22;12519;43.318;21.898;2023-05-21T10:11:18;22.0;80.0
21121;DHT22;12519;43.318;21.898;2023-05-21T10:16:06;22.2;78.0
21121;DHT22;12519;43.318;21.898;2023-05-21T10:20:44;22.2;78.0
21121;DHT22;12519;43.318;21.898;2023-05-21T10:25:24;22.4;77.0
21121;DHT22;12519;43.318;21.898;2023-05-21T10:30:05;22.4;77.0
21121;DHT22;12519;43.318;21.898;2023-05-21T10:34:46;22.5;76.0
21121;DHT22;12519;43.318;21.898;2023-05-21T10:39:29;22.5;76.0
21121;DHT22;12519;43.318;21.898;2023-05-21T10:44:20;22.6;75.0
21121;DHT22;12519;43.318;21.898;2023-05-21T10:50:09;22.6;75.0
21121;DHT22;12519;43.318;21.898;2023-05-21T10:56:07;22.6;71.0
21121;DHT22;12519;43.318;21.898;2023-05-21T11:01:13;22.6;71.0
21121;DHT22;12519;43.318;21.898;2023-05-21T11:05:54;22.5;68.0
21121;DHT22;12519;43.318;21.898;2023-05-21T11:10:36;22.5;68.0
21121;DHT22;12519;43.318;21.898;2023-05-21T11:15:15;22.6;67.0
21121;DHT22;12519;43.318;21.898;2023-05-21T11:19:53;22.6;67.0
21121;DHT22;12519;43.318;21.898;2023-05-21T11:24:31;22.6;66.0
21121;DHT22;12519;43.318;21.898;2023-05-21T11:29:13;22.6;66.0
21121;DHT22;12519;43.318;21.898;2023-05-21T11:34:07;22.6;66.0
21121;DHT22;12519;43.318;21.898;2023-05-21T11:39:07;22.6;66.0
21121;DHT22;12519;43.318;21.898;2023-05-21T11:43:45;22.6;66.0
21121;DHT22;12519;43.318;21.898;2023-05-21T11:48:23;22.7;66.0
21121;DHT22;12519;43.318;21.898;2023-05-21T11:53:01;22.7;66.0
21121;DHT22;12519;43.318;21.898;2023-05-21T11:57:40;22.8;66.0
21121;DHT22;12519;43.318;21.898;2023-05-21T12:02:19;22.8;66.0
21121;DHT22;12519;43.318;21.898;2023-05-21T12:06:56;22.9;66.0
21121;DHT22;12519;43.318;21.898;2023-05-21T12:11:33;22.9;66.0
21121;DHT22;12519;43.318;21.898;2023-05-21T12:16:12;22.8;66.0
21121;DHT22;12519;43.318;21.898;2023-05-21T12:20:50;22.8;66.0
21121;DHT22;12519;43.318;21.898;2023-05-21T12:25:27;22.8;65.0
21121;DHT22;12519;43.318;21.898;2023-05-21T12:30:07;22.8;65.0
21121;DHT22;12519;43.318;21.898;2023-05-21T12:34:46;22.9;65.0
21121;DHT22;12519;43.318;21.898;2023-05-21T12:39:27;22.9;65.0
21121;DHT22;12519;43.318;21.898;2023-05-21T12:44:04;22.9;65.0
21121;DHT22;12519;43.318;21.898;2023-05-21T12:48:40;23.0;65.0
21121;DHT22;12519;43.318;21.898;2023-05-21T12:53:35;23.0;65.0
21121;DHT22;12519;43.318;21.898;2023-05-21T12:58:20;23.2;65.0
21121;DHT22;12519;43.318;21.898;2023-05-21T13:02:57;23.2;65.0
21121;DHT22;12519;43.318;21.898;2023-05-21T13:07:36;23.4;64.0
21121;DHT22;12519;43.318;21.898;2023-05-21T13:12:14;23.4;64.0
21121;DHT22;12519;43.318;21.898;2023-05-21T13:16:50;23.5;64.0
21121;DHT22;12519;43.318;21.898;2023-05-21T13:21:27;23.5;64.0
21121;DHT22;12519;43.318;21.898;2023-05-21T13:26:04;23.6;63.0
21121;DHT22;12519;43.318;21.898;2023-05-21T13:30:41;23.6;63.0
21121;DHT22;12519;43.318;21.898;2023-05-21T13:35:17;23.6;62.0
21121;DHT22;12519;43.318;21.898;2023-05-21T13:39:55;23.6;62.0
21121;DHT22;12519;43.318;21.898;2023-05-21T13:44:32;23.7;61.0
21121;DHT22;12519;43.318;21.898;2023-05-21T13:49:09;23.7;61.0
21121;DHT22;12519;43.318;21.898;2023-05-21T13:53:45;23.7;61.0
21121;DHT22;12519;43.318;21.898;2023-05-21T13:58:22;24.0;61.0
21121;DHT22;12519;43.318;21.898;2023-05-21T14:02:58;24.0;61.0
21121;DHT22;12519;43.318;21.898;2023-05-21T14:07:34;24.4;60.0
21121;DHT22;12519;43.318;21.898;2023-05-21T14:12:10;24.4;60.0
21121;DHT22;12519;43.318;21.898;2023-05-21T14:16:47;24.6;60.0
21121;DHT22;12519;43.318;21.898;2023-05-21T14:21:25;24.6;60.0
21121;DHT22;12519;43.318;21.898;2023-05-21T14:26:01;24.8;59.0
21121;DHT22;12519;43.318;21.898;2023-05-21T14:30:38;24.8;59.0
21121;DHT22;12519;43.318;21.898;2023-05-21T14:35:14;24.6;59.0
21121;DHT22;12519;43.318;21.898;2023-05-21T14:39:50;24.6;59.0
21121;DHT22;12519;43.318;21.898;2023-05-21T14:44:26;24.6;59.0
21121;DHT22;12519;43.318;21.898;2023-05-21T14:49:02;24.4;59.0
21121;DHT22;12519;43.318;21.898;2023-05-21T14:53:39;24.4;59.0
21121;DHT22;12519;43.318;21.898;2023-05-21T14:58:16;24.4;59.0
21121;DHT22;12519;43.318;21.898;2023-05-21T15:02:52;24.4;59.0
21121;DHT22;12519;43.318;21.898;2023-05-21T15:07:29;24.3;60.0
21121;DHT22;12519;43.318;21.898;2023-05-21T15:12:05;24.3;60.0
21121;DHT22;12519;43.318;21.898;2023-05-21T15:16:42;24.1;60.0
21121;DHT22;12519;43.318;21.898;2023-05-21T15:21:18;24.1;60.0
21121;DHT22;12519;43.318;21.898;2023-05-21T15:25:54;23.9;60.0
21121;DHT22;12519;43.318;21.898;2023-05-21T15:30:31;23.9;60.0
21121;DHT22;12519;43.318;21.898;2023-05-21T15:35:08;23.9;60.0
21121;DHT22;12519;43.318;21.898;2023-05-21T15:39:46;23.9;60.0
21121;DHT22;12519;43.318;21.898;2023-05-21T15:44:24;23.9;60.0
21121;DHT22;12519;43.318;21.898;2023-05-21T15:49:01;23.9;60.0
21121;DHT22;12519;43.318;21.898;2023-05-21T15:53:37;23.9;60.0
21121;DHT22;12519;43.318;21.898;2023-05-21T15:58:13;23.8;60.0
21121;DHT22;12519;43.318;21.898;2023-05-21T16:02:51;23.8;60.0
21121;DHT22;12519;43.318;21.898;2023-05-21T16:07:27;23.8;59.0
21121;DHT22;12519;43.318;21.898;2023-05-21T16:12:05;23.8;59.0
21121;DHT22;12519;43.318;21.898;2023-05-21T16:16:42;23.8;60.0
21121;DHT22;12519;43.318;21.898;2023-05-21T16:21:18;23.8;60.0
21121;DHT22;12519;43.318;21.898;2023-05-21T16:25:55;23.7;61.0
21121;DHT22;12519;43.318;21.898;2023-05-21T16:30:31;23.7;61.0
21121;DHT22;12519;43.318;21.898;2023-05-21T16:35:07;23.5;65.0
21121;DHT22;12519;43.318;21.898;2023-05-21T16:39:43;23.5;65.0
21121;DHT22;12519;43.318;21.898;2023-05-21T16:44:20;23.5;65.0
21121;DHT22;12519;43.318;21.898;2023-05-21T16:48:56;23.4;70.0
21121;DHT22;12519;43.318;21.898;2023-05-21T16:53:32;23.4;70.0
21121;DHT22;12519;43.318;21.898;2023-05-21T16:58:08;23.0;72.0
21121;DHT22;12519;43.318;21.898;2023-05-21T17:02:44;23.0;72.0
21121;DHT22;12519;43.318;21.898;2023-05-21T17:07:21;22.6;74.0
21121;DHT22;12519;43.318;21.898;2023-05-21T17:11:57;22.6;74.0
21121;DHT22;12519;43.318;21.898;2023-05-21T17:16:33;22.3;75.0
21121;DHT22;12519;43.318;21.898;2023-05-21T17:21:09;22.3;75.0
21121;DHT22;12519;43.318;21.898;2023-05-21T17:25:46;22.0;76.0
21121;DHT22;12519;43.318;21.898;2023-05-21T17:30:22;22.0;76.0
21121;DHT22;12519;43.318;21.898;2023-05-21T17:34:58;22.0;76.0
21121;DHT22;12519;43.318;21.898;2023-05-21T17:39:35;21.8;76.0
21121;DHT22;12519;43.318;21.898;2023-05-21T17:44:11;21.8;76.0
21121;DHT22;12519;43.318;21.898;2023-05-21T17:48:47;21.6;76.0
21121;DHT22;12519;43.318;21.898;2023-05-21T17:53:23;21.6;76.0
21121;DHT22;12519;43.318;21.898;2023-05-21T17:57:59;21.5;76.0
21121;DHT22;12519;43.318;21.898;2023-05-21T18:02:36;21.5;76.0
21121;DHT22;12519;43.318;21.898;2023-05-21T18:07:12;21.4;76.0
21121;DHT22;12519;43.318;21.898;2023-05-21T18:11:48;21.4;76.0
21121;DHT22;12519;43.318;21.898;2023-05-21T18:16:25;21.2;77.0
21121;DHT22;12519;43.318;21.898;2023-05-21T18:21:01;21.2;77.0
21121;DHT22;12519;43.318;21.898;2023-05-21T18:25:39;21.0;77.0
21121;DHT22;12519;43.318;21.898;2023-05-21T18:30:15;21.0;77.0
21121;DHT22;12519;43.318;21.898;2023-05-21T18:34:52;21.0;77.0
21121;DHT22;12519;43.318;21.898;2023-05-21T18:39:29;20.8;78.0
21121;DHT22;12519;43.318;21.898;2023-05-21T18:44:06;20.8;78.0
21121;DHT22;12519;43.318;21.898;2023-05-21T18:48:42;20.6;78.0
21121;DHT22;12519;43.318;21.898;2023-05-21T18:53:19;20.6;78.0
21121;DHT22;12519;43.318;21.898;2023-05-21T18:57:56;20.5;79.0
21121;DHT22;12519;43.318;21.898;2023-05-21T19:02:32;20.5;79.0
21121;DHT22;12519;43.318;21.898;2023-05-21T19:07:10;20.4;80.0
21121;DHT22;12519;43.318;21.898;2023-05-21T19:11:46;20.4;80.0
21121;DHT22;12519;43.318;21.898;2023-05-21T19:16:23;20.3;80.0
21121;DHT22;12519;43.318;21.898;2023-05-21T19:20:59;20.3;80.0
21121;DHT22;12519;43.318;21.898;2023-05-21T19:25:36;20.2;81.0
21121;DHT22;12519;43.318;21.898;2023-05-21T19:30:12;20.2;81.0
21121;DHT22;12519;43.318;21.898;2023-05-21T19:34:49;20.2;81.0
21121;DHT22;12519;43.318;21.898;2023-05-21T19:39:25;20.2;82.0
21121;DHT22;12519;43.318;21.898;2023-05-21T19:44:04;20.2;82.0
21121;DHT22;12519;43.318;21.898;2023-05-21T19:48:41;20.2;82.0
21121;DHT22;12519;43.318;21.898;2023-05-21T19:53:17;20.2;82.0
21121;DHT22;12519;43.318;21.898;2023-05-21T19:57:53;20.2;82.0
21121;DHT22;12519;43.318;21.898;2023-05-21T20:02:29;20.2;82.0
21121;DHT22;12519;43.318;21.898;2023-05-21T20:07:05;20.1;82.0
21121;DHT22;12519;43.318;21.898;2023-05-21T20:11:42;20.1;82.0
21121;DHT22;12519;43.318;21.898;2023-05-21T20:16:19;20.0;82.0
21121;DHT22;12519;43.318;21.898;2023-05-21T20:20:55;20.0;82.0
21121;DHT22;12519;43.318;21.898;2023-05-21T20:25:31;19.9;82.0
21121;DHT22;12519;43.318;21.898;2023-05-21T20:30:08;19.9;82.0
21121;DHT22;12519;43.318;21.898;2023-05-21T20:34:45;19.9;82.0
21121;DHT22;12519;43.318;21.898;2023-05-21T20:39:21;19.8;82.0
21121;DHT22;12519;43.318;21.898;2023-05-21T20:43:57;19.8;82.0
21121;DHT22;12519;43.318;21.898;2023-05-21T20:48:33;19.8;82.0
21121;DHT22;12519;43.318;21.898;2023-05-21T20:53:10;19.8;82.0
21121;DHT22;12519;43.318;21.898;2023-05-21T20:57:47;19.8;82.0
21121;DHT22;12519;43.318;21.898;2023-05-21T21:02:24;19.8;82.0
21121;DHT22;12519;43.318;21.898;2023-05-21T21:07:00;19.9;83.0
21121;DHT22;12519;43.318;21.898;2023-05-21T21:11:36;19.9;83.0
21121;DHT22;12519;43.318;21.898;2023-05-21T21:16:14;19.9;83.0
21121;DHT22;12519;43.318;21.898;2023-05-21T21:20:50;19.9;83.0
21121;DHT22;12519;43.318;21.898;2023-05-21T21:25:28;19.9;84.0
21121;DHT22;12519;43.318;21.898;2023-05-21T21:30:07;19.9;84.0
21121;DHT22;12519;43.318;21.898;2023-05-21T21:34:47;19.9;84.0
21121;DHT22;12519;43.318;21.898;2023-05-21T21:39:24;19.8;84.0
21121;DHT22;12519;43.318;21.898;2023-05-21T21:44:00;19.8;84.0
21121;DHT22;12519;43.318;21.898;2023-05-21T21:48:37;19.7;84.0
21121;DHT22;12519;43.318;21.898;2023-05-21T21:53:13;19.7;84.0
21121;DHT22;12519;43.318;21.898;2023-05-21T21:57:49;19.6;84.0
21121;DHT22;12519;43.318;21.898;2023-05-21T22:02:26;19.6;84.0
21121;DHT22;12519;43.318;21.898;2023-05-21T22:07:02;19.5;84.0
21121;DHT22;12519;43.318;21.898;2023-05-21T22:11:39;19.5;84.0
21121;DHT22;12519;43.318;21.898;2023-05-21T22:16:16;19.5;84.0
21121;DHT22;12519;43.318;21.898;2023-05-21T22:20:52;19.5;84.0
21121;DHT22;12519;43.318;21.898;2023-05-21T22:25:28;19.5;84.0
21121;DHT22;12519;43.318;21.898;2023-05-21T22:30:06;19.5;84.0
21121;DHT22;12519;43.318;21.898;2023-05-21T22:34:46;19.5;84.0
21121;DHT22;12519;43.318;21.898;2023-05-21T22:39:23;19.4;84.0
21121;DHT22;12519;43.318;21.898;2023-05-21T22:43:59;19.4;84.0
21121;DHT22;12519;43.318;21.898;2023-05-21T22:48:36;19.2;84.0
21121;DHT22;12519;43.318;21.898;2023-05-21T22:53:12;19.2;84.0
21121;DHT22;12519;43.318;21.898;2023-05-21T22:57:49;19.2;84.0
21121;DHT22;12519;43.318;21.898;2023-05-21T23:02:25;19.2;84.0
21121;DHT22;12519;43.318;21.898;2023-05-21T23:07:03;19.1;84.0
21121;DHT22;12519;43.318;21.898;2023-05-21T23:11:39;19.1;84.0
21121;DHT22;12519;43.318;21.898;2023-05-21T23:16:16;19.2;84.0
21121;DHT22;12519;43.318;21.898;2023-05-21T23:20:52;19.2;84.0
21121;DHT22;12519;43.318;21.898;2023-05-21T23:25:29;19.2;84.0
21121;DHT22;12519;43.318;21.898;2023-05-21T23:30:07;19.3;84.0
21121;DHT22;12519;43.318;21.898;2023-05-21T23:34:45;19.3;84.0
21121;DHT22;12519;43.318;21.898;2023-05-21T23:39:22;19.3;84.0
21121;DHT22;12519;43.318;21.898;2023-05-21T23:43:58;19.3;84.0
21121;DHT22;12519;43.318;21.898;2023-05-21T23:48:35;19.3;84.0
21121;DHT22;12519;43.318;21.898;2023-05-21T23:53:12;19.3;84.0
21121;DHT22;12519;43.318;21.898;2023-05-21T23:57:49;19.3;84.0
